Time;durP1;ratioP1;P1;durP2;ratioP2;P2;SDS_P1;SDS_P2;PMS_P1;PMS_P2;Temp;Humidity;BMP_temperature;BMP_pressure;BME280_temperature;BME280_humidity;BME280_pressure;Samples;Min_cycle;Max_cycle;Signal;HPM_P1;HPM_P2
2021/01/23 00:01:36;;;;;;;;;;;;;;;9.13;46.62;99017.56;4964848;28;20000;-73
2021/01/23 00:04:04;;;;;;;;;;;;;;;9.16;46.69;99007.78;4963401;28;19937;-74
2021/01/23 00:06:31;;;;;;;;;;;;;;;9.14;46.27;99011.34;4963270;28;19930;-73
2021/01/23 00:08:58;;;;;;;;;;;;;;;9.14;45.53;99019.28;4960094;28;19938;-74
2021/01/23 00:11:25;;;;;;;;;;;;;;;8.93;46.77;99030.84;4962206;28;20064;-73
2021/01/23 00:13:51;;;;;;;;;;;;;;;8.76;48.07;99027.25;4959992;28;19932;-73
2021/01/23 00:16:19;;;;;;;;;;;;;;;8.69;48.68;99040.78;4969241;28;19962;-73
2021/01/23 00:18:46;;;;;;;;;;;;;;;8.59;49.65;99033.31;4961867;28;19948;-73
2021/01/23 00:21:13;;;;;;;;;;;;;;;8.53;50.03;99033.59;4966531;28;19929;-73
2021/01/23 00:23:40;;;;;;;;;;;;;;;8.49;50.61;99042.56;4954190;28;19942;-73
2021/01/23 00:26:06;;;;;;;;;;;;;;;8.46;50.82;99040.06;4942547;28;20008;-72
2021/01/23 00:28:33;;;;;;;;;;;;;;;8.40;51.51;99049.06;4960168;28;20034;-73
2021/01/23 00:31:03;;;;;;;;;;;;;;;8.38;51.76;99052.69;4965914;28;19926;-74
2021/01/23 00:33:31;;;;;;;;;;;;;;;8.35;51.82;99051.06;4963765;28;19934;-73
2021/01/23 00:35:58;;;;;;;;;;;;;;;8.31;52.52;99066.16;4965406;28;19989;-73
2021/01/23 00:38:25;;;;;;;;;;;;;;;8.30;52.49;99064.44;4943576;28;19934;-73
2021/01/23 00:40:52;;;;;;;;;;;;;;;8.27;52.48;99058.47;4926645;28;19930;-73
2021/01/23 00:43:18;;;;;;;;;;;;;;;8.25;52.88;99066.44;4947561;28;19934;-74
2021/01/23 00:45:45;;;;;;;;;;;;;;;8.22;52.94;99073.59;4947235;28;20044;-74
2021/01/23 00:48:12;;;;;;;;;;;;;;;8.18;53.19;99069.41;4947704;28;19991;-73
2021/01/23 00:50:40;;;;;;;;;;;;;;;8.17;53.52;99083.50;4948689;28;19934;-73
2021/01/23 00:53:07;;;;;;;;;;;;;;;8.14;53.19;99093.25;4942565;28;19937;-73
2021/01/23 00:55:34;;;;;;;;;;;;;;;8.12;53.56;99083.72;4944356;28;19930;-73
2021/01/23 00:58:03;;;;;;;;;;;;;;;8.08;54.11;99068.97;4965173;28;19930;-73
2021/01/23 01:00:30;;;;;;;;;;;;;;;8.07;54.31;99067.25;4963284;28;20462;-74
2021/01/23 01:02:57;;;;;;;;;;;;;;;8.04;54.11;99083.19;4968350;28;20461;-73
2021/01/23 01:05:39;;;;;;;;;;;;;;;8.03;54.89;99082.31;4951944;28;19934;-73
2021/01/23 01:08:07;;;;;;;;;;;;;;;7.97;54.94;99085.22;4958223;28;19943;-73
2021/01/23 01:10:34;;;;;;;;;;;;;;;8.00;54.36;99089.50;4959805;28;19926;-73
2021/01/23 01:13:05;;;;;;;;;;;;;;;7.98;54.88;99094.84;4961097;28;19930;-73
2021/01/23 01:15:32;;;;;;;;;;;;;;;7.98;54.81;99095.72;4963261;28;19926;-73
2021/01/23 01:17:59;;;;;;;;;;;;;;;7.98;55.19;99086.94;4964237;28;20355;-73
2021/01/23 01:20:26;;;;;;;;;;;;;;;7.99;55.08;99096.56;4953127;28;20272;-73
2021/01/23 01:22:53;;;;;;;;;;;;;;;8.00;54.85;99093.00;4952984;28;19958;-73
2021/01/23 01:25:20;;;;;;;;;;;;;;;8.03;55.22;99099.91;4963403;28;20597;-73
2021/01/23 01:27:47;;;;;;;;;;;;;;;8.06;55.19;99105.03;4965197;28;20038;-73
2021/01/23 01:30:14;;;;;;;;;;;;;;;8.08;55.21;99097.94;4964531;28;20032;-74
2021/01/23 01:32:41;;;;;;;;;;;;;;;8.11;55.24;99108.34;4966092;28;19933;-73
2021/01/23 01:35:09;;;;;;;;;;;;;;;8.12;54.93;99110.06;4958425;28;19933;-73
2021/01/23 01:37:36;;;;;;;;;;;;;;;8.16;55.09;99118.69;4957431;28;20005;-73
2021/01/23 01:40:04;;;;;;;;;;;;;;;8.14;55.03;99124.88;4962669;28;20423;-73
2021/01/23 01:42:32;;;;;;;;;;;;;;;8.18;55.47;99136.13;4963493;28;19934;-73
2021/01/23 01:44:59;;;;;;;;;;;;;;;8.18;55.26;99138.78;4958279;28;20304;-73
2021/01/23 01:47:26;;;;;;;;;;;;;;;8.18;55.33;99136.13;4960133;28;21649;-73
2021/01/23 01:49:55;;;;;;;;;;;;;;;8.18;55.15;99138.78;4949103;28;19969;-73
2021/01/23 01:52:22;;;;;;;;;;;;;;;8.40;54.35;99137.81;4956313;28;19930;-73
2021/01/23 01:54:50;;;;;;;;;;;;;;;8.56;52.46;99133.63;4963131;28;19926;-73
2021/01/23 01:57:19;;;;;;;;;;;;;;;8.62;51.23;99135.13;4962783;28;19927;-73
2021/01/23 01:59:46;;;;;;;;;;;;;;;8.70;49.96;99140.03;4961339;28;20060;-73
2021/01/23 02:02:19;;;;;;;;;;;;;;;8.75;49.27;99145.97;4947928;28;19934;-73
2021/01/23 02:04:50;;;;;;;;;;;;;;;8.74;48.31;99153.00;4949757;28;19926;-73
2021/01/23 02:07:26;;;;;;;;;;;;;;;8.80;48.05;99150.09;4940571;28;19930;-73
2021/01/23 02:10:11;;;;;;;;;;;;;;;8.85;47.81;99154.31;4949095;28;19945;-73
2021/01/23 02:12:43;;;;;;;;;;;;;;;8.79;47.45;99168.63;4945999;28;20033;-73
2021/01/23 02:15:12;;;;;;;;;;;;;;;8.61;47.55;99170.31;4953551;28;19972;-73
2021/01/23 02:17:41;;;;;;;;;;;;;;;8.48;48.55;99172.63;4941159;28;19945;-73
2021/01/23 02:20:29;;;;;;;;;;;;;;;8.41;49.36;99181.69;4955203;28;19962;-73
2021/01/23 02:23:10;;;;;;;;;;;;;;;8.33;50.00;99183.81;4942997;28;19926;-73
2021/01/23 02:25:44;;;;;;;;;;;;;;;8.27;50.65;99188.44;4961117;28;20384;-73
2021/01/23 02:28:13;;;;;;;;;;;;;;;8.26;51.29;99185.81;4961650;28;19933;-73
2021/01/23 02:30:45;;;;;;;;;;;;;;;8.22;50.96;99186.88;4952422;28;20014;-73
2021/01/23 02:33:15;;;;;;;;;;;;;;;8.19;51.66;99193.13;4946523;28;20001;-73
2021/01/23 02:35:42;;;;;;;;;;;;;;;8.16;52.06;99201.19;4949975;28;19930;-73
2021/01/23 02:38:11;;;;;;;;;;;;;;;8.14;51.99;99209.16;4958293;28;20001;-72
2021/01/23 02:40:38;;;;;;;;;;;;;;;8.12;52.44;99205.72;4950310;28;19934;-73
2021/01/23 02:43:07;;;;;;;;;;;;;;;8.09;52.37;99205.84;4956479;28;19934;-73
2021/01/23 02:45:34;;;;;;;;;;;;;;;8.08;53.18;99208.56;4967561;28;19949;-73
2021/01/23 02:48:01;;;;;;;;;;;;;;;8.07;53.00;99212.09;4949258;28;19957;-73
2021/01/23 02:50:29;;;;;;;;;;;;;;;8.05;53.24;99213.94;4959166;28;19930;-72
2021/01/23 02:53:01;;;;;;;;;;;;;;;8.04;53.34;99201.72;4950179;28;20029;-73
2021/01/23 02:55:32;;;;;;;;;;;;;;;8.06;52.97;99205.13;4961827;28;19945;-73
2021/01/23 02:58:02;;;;;;;;;;;;;;;8.04;53.78;99205.19;4950293;28;19941;-72
2021/01/23 03:00:30;;;;;;;;;;;;;;;8.02;53.30;99207.00;4952146;28;20058;-73
2021/01/23 03:02:58;;;;;;;;;;;;;;;8.02;53.92;99206.16;4945328;28;20307;-73
2021/01/23 03:05:25;;;;;;;;;;;;;;;8.00;54.29;99210.63;4956949;28;20633;-73
2021/01/23 03:07:53;;;;;;;;;;;;;;;8.02;53.86;99206.16;4959661;28;20469;-73
2021/01/23 03:10:32;;;;;;;;;;;;;;;8.00;53.74;99203.59;4950939;28;20347;-73
2021/01/23 03:12:59;;;;;;;;;;;;;;;8.03;54.09;99215.78;4962258;28;19964;-73
2021/01/23 03:15:26;;;;;;;;;;;;;;;8.03;53.96;99221.91;4956409;28;19926;-72
2021/01/23 03:17:53;;;;;;;;;;;;;;;8.06;54.33;99213.03;4951143;28;19940;-73
2021/01/23 03:20:20;;;;;;;;;;;;;;;8.08;54.73;99212.03;4966224;28;19934;-73
2021/01/23 03:22:47;;;;;;;;;;;;;;;8.14;54.26;99218.81;4952737;28;19989;-72
2021/01/23 03:25:14;;;;;;;;;;;;;;;8.16;54.18;99216.16;4965792;28;19934;-72
2021/01/23 03:27:41;;;;;;;;;;;;;;;8.19;54.22;99214.22;4957051;28;20989;-73
2021/01/23 03:30:09;;;;;;;;;;;;;;;8.22;54.71;99213.22;4960610;28;19959;-73
2021/01/23 03:32:35;;;;;;;;;;;;;;;8.23;54.13;99215.78;4952558;28;19926;-73
2021/01/23 03:35:03;;;;;;;;;;;;;;;8.23;54.57;99207.88;4958844;28;19931;-73
2021/01/23 03:37:30;;;;;;;;;;;;;;;8.24;54.01;99217.50;4962918;28;19941;-73
2021/01/23 03:39:57;;;;;;;;;;;;;;;8.23;54.43;99215.78;4966328;28;19935;-73
2021/01/23 03:42:24;;;;;;;;;;;;;;;8.21;54.44;99212.38;4963961;28;19941;-73
2021/01/23 03:44:51;;;;;;;;;;;;;;;8.21;54.75;99214.16;4960759;28;20461;-73
2021/01/23 03:47:18;;;;;;;;;;;;;;;8.21;54.55;99211.50;4949504;28;19941;-73
2021/01/23 03:49:45;;;;;;;;;;;;;;;8.20;54.87;99209.81;4957852;28;19930;-72
2021/01/23 03:52:12;;;;;;;;;;;;;;;8.20;54.94;99215.09;4958804;28;20024;-72
2021/01/23 03:54:39;;;;;;;;;;;;;;;8.17;54.82;99213.44;4962017;28;19933;-73
2021/01/23 03:57:06;;;;;;;;;;;;;;;8.17;55.43;99223.09;4966329;28;19961;-73
2021/01/23 03:59:35;;;;;;;;;;;;;;;8.14;54.73;99218.81;4954008;28;20034;-73
2021/01/23 04:02:03;;;;;;;;;;;;;;;8.14;54.95;99229.34;4955884;28;19934;-73
2021/01/23 04:04:30;;;;;;;;;;;;;;;8.12;55.17;99223.31;4960147;28;19937;-72
2021/01/23 04:06:57;;;;;;;;;;;;;;;8.09;54.85;99216.38;4963353;28;19932;-73
2021/01/23 04:09:24;;;;;;;;;;;;;;;8.08;55.26;99227.00;4965503;28;19938;-72
2021/01/23 04:11:51;;;;;;;;;;;;;;;8.06;55.46;99234.09;4963995;28;20025;-73
2021/01/23 04:14:18;;;;;;;;;;;;;;;8.03;55.26;99224.53;4958827;28;19981;-73
2021/01/23 04:16:47;;;;;;;;;;;;;;;8.04;55.74;99231.53;4958397;28;19938;-73
2021/01/23 04:19:13;;;;;;;;;;;;;;;8.13;55.26;99227.66;4959464;28;20025;-73
2021/01/23 04:21:41;;;;;;;;;;;;;;;8.20;55.39;99229.09;4966005;28;19969;-73
2021/01/23 04:24:08;;;;;;;;;;;;;;;8.22;55.55;99229.91;4950569;28;19929;-73
2021/01/23 04:26:35;;;;;;;;;;;;;;;8.24;55.31;99229.84;4947480;28;19945;-74
2021/01/23 04:29:02;;;;;;;;;;;;;;;8.35;53.66;99227.59;4944280;28;19941;-72
2021/01/23 04:31:29;;;;;;;;;;;;;;;8.42;52.34;99236.13;4949901;28;20413;-73
2021/01/23 04:33:56;;;;;;;;;;;;;;;8.46;51.20;99230.66;4951658;28;20031;-73
2021/01/23 04:36:23;;;;;;;;;;;;;;;8.50;50.40;99238.44;4951546;28;19934;-72
2021/01/23 04:38:50;;;;;;;;;;;;;;;8.54;49.24;99232.97;4952528;28;19934;-73
2021/01/23 04:41:16;;;;;;;;;;;;;;;8.56;49.08;99238.19;4952409;28;19937;-73
2021/01/23 04:43:44;;;;;;;;;;;;;;;8.60;47.38;99240.63;4953318;28;19934;-73
2021/01/23 04:46:11;;;;;;;;;;;;;;;8.60;47.07;99243.25;4955270;28;19941;-73
2021/01/23 04:48:39;;;;;;;;;;;;;;;8.62;46.57;99246.69;4964403;28;20655;-72
2021/01/23 04:51:07;;;;;;;;;;;;;;;8.61;46.97;99252.03;4964715;28;19937;-73
2021/01/23 04:53:34;;;;;;;;;;;;;;;8.62;46.10;99248.47;4961874;28;20403;-73
2021/01/23 04:56:01;;;;;;;;;;;;;;;8.47;46.59;99263.16;4956188;28;19930;-72
2021/01/23 04:58:29;;;;;;;;;;;;;;;8.32;47.12;99254.09;4957949;28;19930;-72
2021/01/23 05:00:55;;;;;;;;;;;;;;;8.23;47.99;99265.84;4967997;28;19933;-72
2021/01/23 05:03:22;;;;;;;;;;;;;;;8.16;49.04;99266.19;4962011;28;19949;-73
2021/01/23 05:06:03;;;;;;;;;;;;;;;8.10;49.25;99265.53;4952974;28;20025;-73
2021/01/23 05:08:36;;;;;;;;;;;;;;;8.07;49.75;99270.91;4960346;28;19930;-72
2021/01/23 05:11:03;;;;;;;;;;;;;;;8.07;49.85;99270.06;4959088;28;19961;-72
2021/01/23 05:13:30;;;;;;;;;;;;;;;8.02;50.58;99269.38;4958013;28;19934;-74
2021/01/23 05:15:57;;;;;;;;;;;;;;;8.07;50.70;99265.63;4963507;28;20336;-72
2021/01/23 05:18:24;;;;;;;;;;;;;;;8.09;51.10;99266.44;4959996;28;20346;-73
2021/01/23 05:20:51;;;;;;;;;;;;;;;8.11;50.91;99269.00;4958499;28;19930;-73
2021/01/23 05:23:19;;;;;;;;;;;;;;;8.13;51.26;99272.44;4958165;28;19930;-73
2021/01/23 05:25:49;;;;;;;;;;;;;;;8.13;51.17;99270.66;4954720;28;20033;-72
2021/01/23 05:28:24;;;;;;;;;;;;;;;8.16;51.27;99282.00;4961829;28;19927;-73
2021/01/23 05:30:52;;;;;;;;;;;;;;;8.17;52.08;99276.66;4963715;28;20332;-73
2021/01/23 05:33:20;;;;;;;;;;;;;;;8.19;52.06;99280.06;4953936;28;19933;-73
2021/01/23 05:35:55;;;;;;;;;;;;;;;8.22;51.79;99290.50;4949908;28;20123;-73
2021/01/23 05:38:26;;;;;;;;;;;;;;;8.23;51.82;99286.94;4944758;28;19930;-73
2021/01/23 05:40:55;;;;;;;;;;;;;;;8.22;52.02;99287.00;4942926;28;19988;-73
2021/01/23 05:43:34;;;;;;;;;;;;;;;8.21;52.02;99299.31;4950317;28;20411;-73
2021/01/23 05:46:03;;;;;;;;;;;;;;;8.20;52.65;99299.38;4966293;28;19930;-73
2021/01/23 05:48:31;;;;;;;;;;;;;;;8.20;53.00;99299.38;4961413;28;19934;-73
2021/01/23 05:50:57;;;;;;;;;;;;;;;8.18;52.66;99294.19;4962652;28;19930;-73
2021/01/23 05:53:24;;;;;;;;;;;;;;;8.19;53.20;99289.75;4957519;28;19942;-77
2021/01/23 05:55:51;;;;;;;;;;;;;;;8.19;52.82;99297.66;4963166;28;19926;-78
2021/01/23 05:58:19;;;;;;;;;;;;;;;8.20;53.28;99302.03;4963111;28;19981;-73
2021/01/23 06:00:47;;;;;;;;;;;;;;;8.19;52.97;99306.41;4974862;28;19949;-77
2021/01/23 06:03:14;;;;;;;;;;;;;;;8.16;52.85;99309.19;4966451;28;19934;-74
2021/01/23 06:05:42;;;;;;;;;;;;;;;8.14;53.29;99303.97;4954993;28;19930;-73
2021/01/23 06:08:09;;;;;;;;;;;;;;;8.14;53.36;99309.25;4962436;28;20035;-72
2021/01/23 06:10:37;;;;;;;;;;;;;;;8.16;53.32;99309.19;4958153;28;19997;-73
2021/01/23 06:13:05;;;;;;;;;;;;;;;8.16;53.81;99311.81;4971001;28;20449;-73
2021/01/23 06:15:39;;;;;;;;;;;;;;;8.16;53.74;99306.56;4963493;28;19944;-73
2021/01/23 06:18:07;;;;;;;;;;;;;;;8.14;53.77;99316.28;4963781;28;20018;-72
2021/01/23 06:20:47;;;;;;;;;;;;;;;8.13;54.12;99312.81;4966966;28;19977;-73
2021/01/23 06:23:16;;;;;;;;;;;;;;;8.14;53.56;99311.88;4961288;28;19930;-73
2021/01/23 06:26:05;;;;;;;;;;;;;;;8.13;53.97;99314.59;4953894;28;19941;-74
2021/01/23 06:28:50;;;;;;;;;;;;;;;8.14;53.74;99314.53;4966873;28;19930;-73
2021/01/23 06:31:34;;;;;;;;;;;;;;;8.16;53.88;99321.50;4969175;28;19926;-72
2021/01/23 06:34:01;;;;;;;;;;;;;;;8.14;53.68;99325.06;4971821;28;19977;-73
2021/01/23 06:36:31;;;;;;;;;;;;;;;8.14;54.13;99322.44;4964861;28;19941;-74
2021/01/23 06:39:06;;;;;;;;;;;;;;;8.14;53.68;99330.31;4967122;28;19926;-74
2021/01/23 06:41:33;;;;;;;;;;;;;;;8.13;54.07;99333.88;4967590;28;19952;-73
2021/01/23 06:44:19;;;;;;;;;;;;;;;8.14;53.70;99327.69;4964457;28;19946;-74
2021/01/23 06:46:57;;;;;;;;;;;;;;;8.13;54.44;99327.75;4968760;28;19997;-74
2021/01/23 06:49:25;;;;;;;;;;;;;;;8.12;54.20;99336.56;4963660;28;19930;-73
2021/01/23 06:52:03;;;;;;;;;;;;;;;8.11;54.17;99333.06;4960794;28;20076;-74
2021/01/23 06:54:31;;;;;;;;;;;;;;;8.12;54.50;99336.56;4962593;28;19957;-73
2021/01/23 06:56:58;;;;;;;;;;;;;;;8.10;54.66;99343.66;4969765;28;19927;-73
2021/01/23 06:59:25;;;;;;;;;;;;;;;8.10;54.27;99343.66;4970712;28;20347;-73
2021/01/23 07:02:00;;;;;;;;;;;;;;;8.10;54.50;99351.56;4968139;28;19961;-73
2021/01/23 07:04:28;;;;;;;;;;;;;;;8.11;54.53;99343.59;4964276;28;20837;-73
2021/01/23 07:06:55;;;;;;;;;;;;;;;8.11;54.80;99351.50;4957948;28;20047;-73
2021/01/23 07:09:36;;;;;;;;;;;;;;;8.13;54.29;99354.94;4967529;28;20532;-73
2021/01/23 07:12:03;;;;;;;;;;;;;;;8.28;53.95;99357.88;4969739;28;19926;-75
2021/01/23 07:14:30;;;;;;;;;;;;;;;8.52;52.42;99358.69;4978654;28;19929;-74
2021/01/23 07:16:57;;;;;;;;;;;;;;;8.70;51.01;99370.25;4975591;28;19926;-74
2021/01/23 07:19:27;;;;;;;;;;;;;;;8.86;48.83;99367.84;4971879;28;19930;-74
2021/01/23 07:21:54;;;;;;;;;;;;;;;8.96;48.13;99363.88;4970410;28;19926;-75
2021/01/23 07:24:20;;;;;;;;;;;;;;;9.03;47.71;99363.63;4970032;28;20366;-74
2021/01/23 07:26:48;;;;;;;;;;;;;;;9.11;46.94;99374.69;4977003;28;20350;-73
2021/01/23 07:29:15;;;;;;;;;;;;;;;9.20;45.88;99374.31;4973833;28;20358;-76
2021/01/23 07:31:42;;;;;;;;;;;;;;;9.20;46.05;99379.56;4954175;28;19930;-73
2021/01/23 07:34:10;;;;;;;;;;;;;;;9.16;45.60;99374.53;4969447;28;20393;-74
2021/01/23 07:36:43;;;;;;;;;;;;;;;9.04;46.44;99376.75;4959532;28;20016;-75
2021/01/23 07:39:10;;;;;;;;;;;;;;;8.99;46.77;99384.00;4971176;28;20048;-75
2021/01/23 07:41:39;;;;;;;;;;;;;;;8.95;47.46;99379.78;4971946;28;19941;-74
2021/01/23 07:44:06;;;;;;;;;;;;;;;8.93;48.20;99382.50;4969050;28;19988;-78
2021/01/23 07:46:36;;;;;;;;;;;;;;;8.91;48.56;99388.75;4965622;28;19930;-74
2021/01/23 07:49:04;;;;;;;;;;;;;;;8.90;49.24;99381.75;4961394;28;20163;-73
2021/01/23 07:51:31;;;;;;;;;;;;;;;8.90;48.88;99384.38;4961427;28;20322;-74
2021/01/23 07:54:16;;;;;;;;;;;;;;;8.89;49.49;99385.31;4970341;28;19929;-74
2021/01/23 07:56:53;;;;;;;;;;;;;;;8.89;49.77;99391.47;4963151;28;20358;-74
2021/01/23 07:59:21;;;;;;;;;;;;;;;8.91;49.98;99388.75;4972813;28;20383;-74
2021/01/23 08:01:48;;;;;;;;;;;;;;;8.90;50.06;99387.03;4965764;28;19976;-74
2021/01/23 08:04:34;;;;;;;;;;;;;;;8.90;50.15;99385.22;4960009;28;19937;-74
2021/01/23 08:07:19;;;;;;;;;;;;;;;8.90;50.74;99385.22;4968907;28;20043;-76
2021/01/23 08:09:47;;;;;;;;;;;;;;;8.92;50.39;99382.56;4971889;28;20455;-74
2021/01/23 08:12:19;;;;;;;;;;;;;;;8.92;50.52;99386.03;4972498;28;19981;-74
2021/01/23 08:14:52;;;;;;;;;;;;;;;8.92;50.69;99390.47;4973627;28;20029;-75
2021/01/23 08:17:19;;;;;;;;;;;;;;;8.92;50.64;99393.13;4958840;28;20359;-74
2021/01/23 08:19:50;;;;;;;;;;;;;;;8.93;50.90;99387.75;4961042;28;19930;-74
2021/01/23 08:22:16;;;;;;;;;;;;;;;8.95;51.20;99398.25;4969785;28;19960;-74
2021/01/23 08:24:43;;;;;;;;;;;;;;;8.96;51.05;99398.19;4973439;28;20750;-74
2021/01/23 08:27:17;;;;;;;;;;;;;;;8.99;51.23;99396.34;4970728;28;19925;-74
2021/01/23 08:29:45;;;;;;;;;;;;;;;9.02;51.31;99401.47;4971595;28;20018;-75
2021/01/23 08:32:11;;;;;;;;;;;;;;;9.03;51.32;99401.41;4965277;28;20820;-74
2021/01/23 08:34:38;;;;;;;;;;;;;;;9.06;51.41;99406.56;4973974;28;19968;-75
2021/01/23 08:37:05;;;;;;;;;;;;;;;9.07;51.25;99413.53;4970418;28;19926;-75
2021/01/23 08:39:40;;;;;;;;;;;;;;;9.08;51.54;99414.41;4976811;28;20268;-74
2021/01/23 08:42:07;;;;;;;;;;;;;;;9.11;51.37;99415.16;4964818;28;20306;-75
2021/01/23 08:44:35;;;;;;;;;;;;;;;9.12;51.26;99411.56;4964274;28;20619;-75
2021/01/23 08:47:03;;;;;;;;;;;;;;;9.15;51.50;99418.50;4967704;28;20306;-74
2021/01/23 08:49:32;;;;;;;;;;;;;;;9.13;51.65;99417.72;4970416;28;19925;-74
2021/01/23 08:51:59;;;;;;;;;;;;;;;9.14;51.34;99420.28;4964617;28;19955;-75
2021/01/23 08:54:26;;;;;;;;;;;;;;;9.13;51.55;99420.34;4967728;28;19962;-74
2021/01/23 08:56:52;;;;;;;;;;;;;;;9.13;51.90;99423.84;4966259;28;20052;-75
2021/01/23 08:59:19;;;;;;;;;;;;;;;9.14;51.59;99420.28;4972274;28;19934;-75
2021/01/23 09:01:47;;;;;;;;;;;;;;;9.13;51.64;99423.84;4970381;28;19930;-74
2021/01/23 09:04:14;;;;;;;;;;;;;;;9.13;51.96;99423.84;4969463;28;20362;-74
2021/01/23 09:06:41;;;;;;;;;;;;;;;9.13;51.59;99429.13;4969427;28;19926;-75
2021/01/23 09:09:07;;;;;;;;;;;;;;;9.13;51.54;99430.91;4975098;28;19930;-75
2021/01/23 09:11:36;;;;;;;;;;;;;;;9.13;51.78;99430.91;4961889;28;19934;-75
2021/01/23 09:14:04;;;;;;;;;;;;;;;9.12;51.92;99424.75;4958914;28;19977;-75
2021/01/23 09:16:31;;;;;;;;;;;;;;;9.14;52.11;99417.66;4963318;28;20032;-75
2021/01/23 09:18:59;;;;;;;;;;;;;;;9.16;52.40;99424.66;4965707;28;19933;-74
2021/01/23 09:21:26;;;;;;;;;;;;;;;9.16;52.04;99430.78;4963962;28;20409;-75
2021/01/23 09:23:52;;;;;;;;;;;;;;;9.16;51.70;99433.41;4969259;28;20050;-74
2021/01/23 09:26:19;;;;;;;;;;;;;;;9.15;52.28;99426.41;4963891;28;19942;-73
2021/01/23 09:28:46;;;;;;;;;;;;;;;9.16;51.93;99437.84;4964264;28;19965;-74
2021/01/23 09:31:13;;;;;;;;;;;;;;;9.17;52.07;99437.78;4963967;28;19929;-75
2021/01/23 09:33:40;;;;;;;;;;;;;;;9.18;52.29;99439.50;4961895;28;19935;-75
2021/01/23 09:36:08;;;;;;;;;;;;;;;9.18;52.40;99431.56;4966672;28;19938;-76
2021/01/23 09:38:34;;;;;;;;;;;;;;;9.20;52.19;99436.78;4962839;28;19934;-75
2021/01/23 09:41:03;;;;;;;;;;;;;;;9.22;52.28;99434.91;4957897;28;20251;-76
2021/01/23 09:43:30;;;;;;;;;;;;;;;9.27;52.02;99433.81;4960747;28;19930;-75
2021/01/23 09:45:57;;;;;;;;;;;;;;;9.32;51.88;99432.75;4966157;28;19930;-76
2021/01/23 09:48:24;;;;;;;;;;;;;;;9.37;52.27;99423.72;4966349;28;19934;-75
2021/01/23 09:50:51;;;;;;;;;;;;;;;9.44;51.76;99426.94;4964358;28;19937;-75
2021/01/23 09:53:18;;;;;;;;;;;;;;;9.45;51.95;99428.66;4966791;28;20000;-75
2021/01/23 09:55:45;;;;;;;;;;;;;;;9.42;52.15;99439.34;4962628;28;19930;-75
2021/01/23 09:58:12;;;;;;;;;;;;;;;9.42;51.96;99448.13;4962644;28;19930;-75
2021/01/23 10:00:40;;;;;;;;;;;;;;;9.40;52.02;99443.84;4964381;28;19930;-76
2021/01/23 10:03:06;;;;;;;;;;;;;;;9.40;52.72;99443.84;4964728;28;19930;-75
2021/01/23 10:05:33;;;;;;;;;;;;;;;9.44;51.63;99437.50;4968006;28;19952;-75
2021/01/23 10:08:00;;;;;;;;;;;;;;;9.45;52.27;99434.78;4962885;28;20005;-75
2021/01/23 10:10:28;;;;;;;;;;;;;;;9.44;52.17;99441.00;4962657;28;19929;-75
2021/01/23 10:12:55;;;;;;;;;;;;;;;9.47;52.35;99440.03;4963290;28;19930;-75
2021/01/23 10:15:22;;;;;;;;;;;;;;;9.58;51.15;99434.25;4965059;28;19985;-76
2021/01/23 10:17:52;;;;;;;;;;;;;;;9.70;49.91;99433.69;4963483;28;20391;-75
2021/01/23 10:20:19;;;;;;;;;;;;;;;9.77;48.33;99427.22;4967073;28;19950;-75
2021/01/23 10:22:46;;;;;;;;;;;;;;;9.88;47.09;99426.75;4963128;28;19930;-76
2021/01/23 10:25:13;;;;;;;;;;;;;;;9.94;46.30;99423.81;4958516;28;19930;-75
2021/01/23 10:27:41;;;;;;;;;;;;;;;10.00;45.74;99424.47;4971593;28;19958;-75
2021/01/23 10:30:08;;;;;;;;;;;;;;;10.08;45.35;99417.03;4966780;28;20318;-74
2021/01/23 10:32:35;;;;;;;;;;;;;;;10.14;44.82;99422.91;4962349;28;20376;-74
2021/01/23 10:35:02;;;;;;;;;;;;;;;10.18;43.93;99412.16;4963897;28;19930;-75
2021/01/23 10:37:31;;;;;;;;;;;;;;;10.20;43.68;99405.88;4940307;28;19981;-75
2021/01/23 10:39:57;;;;;;;;;;;;;;;10.28;43.54;99405.53;4953699;28;20025;-75
2021/01/23 10:42:24;;;;;;;;;;;;;;;10.29;43.49;99394.03;4962009;28;19929;-75
2021/01/23 10:44:52;;;;;;;;;;;;;;;10.19;44.35;99403.31;4968503;28;19930;-75
2021/01/23 10:47:19;;;;;;;;;;;;;;;10.15;44.42;99402.59;4966024;28;19934;-75
2021/01/23 10:49:46;;;;;;;;;;;;;;;10.14;45.07;99395.63;4969078;28;19926;-75
2021/01/23 10:52:13;;;;;;;;;;;;;;;10.08;45.17;99394.09;4961715;28;19930;-75
2021/01/23 10:54:40;;;;;;;;;;;;;;;10.06;46.16;99389.81;4964231;28;20280;-76
2021/01/23 10:57:07;;;;;;;;;;;;;;;10.14;47.04;99385.91;4965335;28;19969;-75
2021/01/23 10:59:33;;;;;;;;;;;;;;;10.11;48.71;99383.41;4968887;28;20025;-75
2021/01/23 11:02:01;;;;;;;;;;;;;;;10.06;48.92;99380.13;4969618;28;19938;-75
2021/01/23 11:04:28;;;;;;;;;;;;;;;10.08;48.52;99377.41;4967358;28;20383;-75
2021/01/23 11:06:55;;;;;;;;;;;;;;;10.14;48.73;99375.31;4962040;28;19935;-76
2021/01/23 11:09:22;;;;;;;;;;;;;;;10.15;48.66;99368.25;4970620;28;19988;-76
2021/01/23 11:11:49;;;;;;;;;;;;;;;10.12;48.54;99373.69;4966763;28;19926;-76
2021/01/23 11:14:15;;;;;;;;;;;;;;;10.13;48.97;99375.41;4969034;28;19930;-76
2021/01/23 11:16:42;;;;;;;;;;;;;;;10.13;48.94;99370.13;4971752;28;19989;-76
2021/01/23 11:19:10;;;;;;;;;;;;;;;10.18;48.58;99368.13;4963890;28;19958;-75
2021/01/23 11:21:37;;;;;;;;;;;;;;;10.21;48.76;99361.81;4963298;28;19930;-76
2021/01/23 11:24:04;;;;;;;;;;;;;;;10.22;48.95;99361.75;4967936;28;19926;-75
2021/01/23 11:26:33;;;;;;;;;;;;;;;10.26;49.12;99360.66;4964773;28;19926;-75
2021/01/23 11:29:00;;;;;;;;;;;;;;;10.28;49.03;99364.09;4951785;28;19934;-75
2021/01/23 11:31:27;;;;;;;;;;;;;;;10.31;48.81;99363.09;4968721;28;19963;-74
2021/01/23 11:33:54;;;;;;;;;;;;;;;10.32;50.07;99361.31;4963942;28;19930;-75
2021/01/23 11:36:21;;;;;;;;;;;;;;;10.23;50.07;99365.25;4962618;28;20025;-76
2021/01/23 11:38:48;;;;;;;;;;;;;;;10.21;50.14;99353.91;4965275;28;20409;-75
2021/01/23 11:41:15;;;;;;;;;;;;;;;10.21;50.30;99349.47;4971257;28;20411;-76
2021/01/23 11:43:42;;;;;;;;;;;;;;;10.21;50.22;99349.47;4973512;28;19930;-76
2021/01/23 11:46:09;;;;;;;;;;;;;;;10.18;50.07;99352.25;4970282;28;19931;-75
2021/01/23 11:48:36;;;;;;;;;;;;;;;10.20;50.47;99337.16;4961806;28;19954;-76
2021/01/23 11:51:03;;;;;;;;;;;;;;;10.20;50.31;99342.44;4963307;28;19934;-75
2021/01/23 11:53:31;;;;;;;;;;;;;;;10.17;50.52;99345.25;4967560;28;19926;-76
2021/01/23 11:55:57;;;;;;;;;;;;;;;10.14;50.30;99338.34;4968782;28;19993;-75
2021/01/23 11:58:24;;;;;;;;;;;;;;;10.11;50.75;99338.50;4966026;28;19961;-75
2021/01/23 12:00:51;;;;;;;;;;;;;;;10.12;50.85;99334.94;4969786;28;19930;-76
2021/01/23 12:03:18;;;;;;;;;;;;;;;10.15;50.54;99331.25;4964931;28;19932;-76
2021/01/23 12:05:45;;;;;;;;;;;;;;;10.17;50.45;99325.91;4963674;28;19934;-76
2021/01/23 12:08:11;;;;;;;;;;;;;;;10.11;50.66;99317.34;4966665;28;19930;-76
2021/01/23 12:10:39;;;;;;;;;;;;;;;10.12;50.39;99320.84;4968763;28;19926;-75
2021/01/23 12:13:06;;;;;;;;;;;;;;;10.09;51.34;99323.63;4970797;28;19930;-76
2021/01/23 12:15:34;;;;;;;;;;;;;;;10.09;50.94;99319.19;4967276;28;20024;-78
2021/01/23 12:18:01;;;;;;;;;;;;;;;10.12;51.10;99312.91;4963068;28;20444;-78
2021/01/23 12:20:28;;;;;;;;;;;;;;;10.11;50.98;99309.41;4962189;28;19926;-75
2021/01/23 12:22:55;;;;;;;;;;;;;;;10.09;50.93;99311.28;4967733;28;19945;-76
2021/01/23 12:25:22;;;;;;;;;;;;;;;10.11;51.11;99308.53;4968110;28;19941;-78
2021/01/23 12:27:50;;;;;;;;;;;;;;;10.12;50.88;99299.69;4969047;28;19930;-81
2021/01/23 12:30:18;;;;;;;;;;;;;;;10.14;51.40;99295.22;4969405;28;19930;-78
2021/01/23 12:32:45;;;;;;;;;;;;;;;10.08;51.41;99300.78;4962085;28;19926;-77
2021/01/23 12:35:12;;;;;;;;;;;;;;;10.06;51.40;99295.56;4962597;28;20387;-77
2021/01/23 12:37:43;;;;;;;;;;;;;;;10.06;51.68;99294.69;4965630;28;21566;-78
2021/01/23 12:40:10;;;;;;;;;;;;;;;10.12;51.29;99291.78;4964867;28;20450;-77
2021/01/23 12:42:36;;;;;;;;;;;;;;;10.05;51.69;99291.22;4966397;28;19937;-77
2021/01/23 12:45:05;;;;;;;;;;;;;;;10.01;51.69;99287.00;4965825;28;19930;-78
2021/01/23 12:47:33;;;;;;;;;;;;;;;10.04;51.71;99286.00;4961106;28;21023;-79
2021/01/23 12:50:00;;;;;;;;;;;;;;;10.03;51.42;99284.28;4963389;28;20268;-79
2021/01/23 12:52:27;;;;;;;;;;;;;;;10.02;51.17;99286.09;4963677;28;20355;-79
2021/01/23 12:54:54;;;;;;;;;;;;;;;10.10;49.53;99283.91;4966930;28;20509;-79
2021/01/23 12:57:20;;;;;;;;;;;;;;;10.18;48.40;99283.56;4967247;28;20414;-79
2021/01/23 12:59:47;;;;;;;;;;;;;;;10.23;47.27;99278.91;4964971;28;19938;-80
2021/01/23 13:02:15;;;;;;;;;;;;;;;10.23;46.70;99276.25;4959680;28;20021;-80